Time;durP1;ratioP1;P1;durP2;ratioP2;P2;SDS_P1;SDS_P2;PMS_P1;PMS_P2;Temp;Humidity;BMP_temperature;BMP_pressure;BME280_temperature;BME280_humidity;BME280_pressure;Samples;Min_cycle;Max_cycle;Signal;HPM_P1;HPM_P2
2021/01/01 00:02:20;;;;;;;265.42;178.68;;;3.20;99.90;;;;;;5002306;28;20251;-83
2021/01/01 00:04:47;;;;;;;289.48;182.05;;;3.20;99.90;;;;;;4997760;28;20276;-88
2021/01/01 00:07:13;;;;;;;309.58;199.25;;;3.20;99.90;;;;;;4998571;28;20731;-87
2021/01/01 00:09:40;;;;;;;264.70;178.00;;;3.10;99.90;;;;;;5008353;28;20267;-88
2021/01/01 00:12:07;;;;;;;246.18;178.25;;;3.20;99.90;;;;;;4997657;28;20208;-88
2021/01/01 00:14:33;;;;;;;205.52;134.52;;;3.20;99.90;;;;;;4997980;28;20220;-86
2021/01/01 00:17:00;;;;;;;161.25;110.18;;;3.20;99.90;;;;;;4997962;28;20229;-85
2021/01/01 00:19:27;;;;;;;162.93;111.25;;;3.20;99.90;;;;;;4998679;28;20201;-84
2021/01/01 00:21:53;;;;;;;153.55;109.47;;;3.10;99.90;;;;;;4999098;28;20208;-85
2021/01/01 00:24:19;;;;;;;149.88;101.50;;;3.10;99.90;;;;;;5007774;28;20367;-85
2021/01/01 00:26:51;;;;;;;168.27;102.82;;;2.90;99.90;;;;;;5011066;28;20185;-85
2021/01/01 00:29:17;;;;;;;139.35;94.63;;;2.90;99.90;;;;;;5004398;28;20209;-85
2021/01/01 00:31:44;;;;;;;137.05;94.18;;;3.00;99.90;;;;;;5013675;28;20204;-86
2021/01/01 00:34:10;;;;;;;138.05;91.20;;;3.10;99.90;;;;;;5018992;28;20216;-86
2021/01/01 00:36:36;;;;;;;131.57;90.82;;;3.10;99.90;;;;;;5018594;28;20215;-87
2021/01/01 00:39:03;;;;;;;118.78;79.32;;;3.20;99.90;;;;;;5018809;28;20211;-88
2021/01/01 00:41:34;;;;;;;127.60;81.13;;;3.30;99.90;;;;;;5019141;28;20193;-90
2021/01/01 00:44:01;;;;;;;138.65;77.63;;;3.30;99.90;;;;;;5018942;28;20208;-89
2021/01/01 00:46:29;;;;;;;121.60;78.90;;;3.30;99.90;;;;;;5019325;28;20197;-87
2021/01/01 00:48:58;;;;;;;99.72;66.80;;;3.20;99.90;;;;;;5018321;28;20209;-87
2021/01/01 00:51:26;;;;;;;106.03;71.88;;;3.30;99.90;;;;;;5018185;28;20231;-85
2021/01/01 00:53:52;;;;;;;106.10;65.13;;;3.20;99.90;;;;;;5013487;28;20209;-84
2021/01/01 00:56:20;;;;;;;97.75;69.72;;;3.30;99.90;;;;;;5011894;28;20232;-85
2021/01/01 00:58:46;;;;;;;91.85;58.45;;;3.20;99.90;;;;;;5011858;28;20217;-85
2021/01/01 01:01:13;;;;;;;96.07;62.90;;;3.20;99.90;;;;;;5011413;28;20211;-87
2021/01/01 01:03:39;;;;;;;106.90;69.18;;;3.20;99.90;;;;;;5012037;28;20269;-87
2021/01/01 01:06:06;;;;;;;97.57;60.75;;;3.10;99.90;;;;;;5008911;28;20279;-88
2021/01/01 01:08:32;;;;;;;103.70;68.25;;;3.20;99.90;;;;;;4999580;28;20259;-88
2021/01/01 01:10:58;;;;;;;102.30;66.65;;;3.10;99.90;;;;;;4999204;28;20212;-89
2021/01/01 01:13:25;;;;;;;121.47;78.28;;;3.10;99.90;;;;;;4999247;28;20215;-89
2021/01/01 01:15:51;;;;;;;122.20;76.45;;;3.10;99.90;;;;;;5000672;28;20221;-86
2021/01/01 01:18:18;;;;;;;122.63;74.70;;;3.00;99.90;;;;;;4998657;28;20284;-86
2021/01/01 01:20:44;;;;;;;127.18;78.93;;;2.90;99.90;;;;;;5002127;28;20201;-87
2021/01/01 01:23:11;;;;;;;113.22;75.07;;;2.90;99.90;;;;;;5003864;28;20635;-88
2021/01/01 01:25:37;;;;;;;122.97;78.28;;;2.90;99.90;;;;;;4997430;28;20280;-88
2021/01/01 01:28:04;;;;;;;127.25;77.75;;;3.00;99.90;;;;;;4999614;28;20201;-87
2021/01/01 01:30:30;;;;;;;124.78;78.85;;;3.00;99.90;;;;;;5000129;28;20292;-86
2021/01/01 01:32:56;;;;;;;121.20;77.63;;;3.20;99.90;;;;;;5000787;28;20607;-88
2021/01/01 01:35:24;;;;;;;105.43;66.93;;;3.10;99.90;;;;;;4999288;28;20231;-90
2021/01/01 01:37:50;;;;;;;100.55;66.70;;;3.10;99.90;;;;;;4999552;28;20225;-88
2021/01/01 01:40:16;;;;;;;110.93;65.88;;;3.10;99.90;;;;;;5000262;28;20236;-85
2021/01/01 01:42:43;;;;;;;101.57;66.20;;;3.10;99.90;;;;;;4999604;28;20287;-87
2021/01/01 01:45:10;;;;;;;98.40;64.85;;;2.90;99.90;;;;;;4998711;28;20235;-87
2021/01/01 01:47:37;;;;;;;99.97;65.50;;;3.00;99.90;;;;;;4998058;28;20243;-88
2021/01/01 01:50:05;;;;;;;91.50;65.95;;;2.90;99.90;;;;;;4998137;28;20228;-87
2021/01/01 01:52:34;;;;;;;94.40;60.10;;;2.90;99.90;;;;;;5000072;28;20213;-89
2021/01/01 01:55:01;;;;;;;89.95;55.85;;;2.90;99.90;;;;;;5003313;28;20283;-86
2021/01/01 01:57:27;;;;;;;90.07;55.08;;;2.90;99.90;;;;;;5008289;28;20217;-87
2021/01/01 01:59:56;;;;;;;70.43;49.80;;;2.90;99.90;;;;;;4997130;28;20208;-87
2021/01/01 02:02:23;;;;;;;70.47;50.20;;;2.90;99.90;;;;;;4997756;28;20577;-89
2021/01/01 02:04:50;;;;;;;68.00;48.35;;;2.90;99.90;;;;;;4998111;28;20661;-89
2021/01/01 02:07:19;;;;;;;71.35;48.63;;;2.90;99.90;;;;;;4998518;28;20635;-90
2021/01/01 02:09:47;;;;;;;70.95;46.33;;;2.90;99.90;;;;;;4997716;28;20290;-87
2021/01/01 02:12:16;;;;;;;66.05;42.95;;;2.90;99.90;;;;;;4997899;28;20295;-86
2021/01/01 02:14:48;;;;;;;59.10;41.50;;;3.00;99.90;;;;;;4997273;28;20228;-90
2021/01/01 02:17:15;;;;;;;65.22;45.30;;;3.00;99.90;;;;;;5008209;28;20229;-91
2021/01/01 02:19:42;;;;;;;60.25;39.45;;;2.90;99.90;;;;;;5009065;28;20260;-91
2021/01/01 02:22:16;;;;;;;65.30;40.72;;;2.90;99.90;;;;;;5000094;28;20216;-90
2021/01/01 02:24:42;;;;;;;60.92;40.72;;;2.90;99.90;;;;;;4998911;28;20239;-89
2021/01/01 02:27:08;;;;;;;57.83;39.90;;;2.90;99.90;;;;;;5000254;28;20211;-91
2021/01/01 02:29:35;;;;;;;55.50;39.45;;;2.90;99.90;;;;;;5018251;28;20244;-88
2021/01/01 02:32:01;;;;;;;60.05;38.40;;;2.90;99.90;;;;;;5006451;28;20274;-89
2021/01/01 02:34:27;;;;;;;51.40;35.65;;;2.90;99.90;;;;;;5004233;28;20257;-90
2021/01/01 02:36:54;;;;;;;53.17;37.72;;;2.90;99.90;;;;;;5002646;28;20239;-88
2021/01/01 02:39:23;;;;;;;48.15;34.38;;;2.90;99.90;;;;;;5002114;28;20244;-89
2021/01/01 02:41:49;;;;;;;41.53;31.70;;;2.90;99.90;;;;;;5001080;28;20227;-88
2021/01/01 02:44:18;;;;;;;50.70;34.20;;;2.90;99.90;;;;;;5001583;28;20221;-90
2021/01/01 02:46:45;;;;;;;45.58;31.08;;;2.90;99.90;;;;;;5002112;28;20204;-87
2021/01/01 02:49:11;;;;;;;45.42;29.92;;;3.00;99.90;;;;;;5001853;28;20247;-89
2021/01/01 02:51:41;;;;;;;45.42;32.58;;;2.90;99.90;;;;;;5001015;28;20216;-88
2021/01/01 02:54:07;;;;;;;43.72;31.17;;;2.80;99.90;;;;;;5001225;28;20193;-89
2021/01/01 02:56:51;;;;;;;43.90;31.30;;;2.80;99.90;;;;;;5002207;28;20208;-88
2021/01/01 02:59:26;;;;;;;40.13;28.95;;;2.90;99.90;;;;;;5002732;28;20196;-88
2021/01/01 03:01:55;;;;;;;46.90;31.75;;;2.80;99.90;;;;;;5002173;28;20272;-89
2021/01/01 03:04:33;;;;;;;47.05;34.25;;;2.80;99.90;;;;;;5001834;28;20245;-88
2021/01/01 03:07:13;;;;;;;57.53;39.28;;;2.90;99.90;;;;;;5005370;28;20208;-89
2021/01/01 03:09:46;;;;;;;44.55;32.15;;;2.80;99.90;;;;;;5003276;28;20185;-89
2021/01/01 03:12:19;;;;;;;44.13;30.70;;;2.80;99.90;;;;;;5013568;28;20224;-89
2021/01/01 03:14:51;;;;;;;41.90;30.13;;;2.90;99.90;;;;;;5002980;28;20229;-89
2021/01/01 03:17:18;;;;;;;40.45;29.45;;;2.80;99.90;;;;;;5001711;28;20686;-89
2021/01/01 03:19:48;;;;;;;41.17;28.73;;;2.90;99.90;;;;;;5001666;28;20205;-89
2021/01/01 03:22:16;;;;;;;43.33;30.05;;;2.90;99.90;;;;;;5001665;28;20209;-89
2021/01/01 03:24:46;;;;;;;46.83;31.33;;;2.90;99.90;;;;;;5002380;28;20303;-90
2021/01/01 03:27:17;;;;;;;41.20;29.40;;;2.90;99.90;;;;;;5003380;28;20201;-89
2021/01/01 03:29:46;;;;;;;40.85;29.88;;;2.90;99.90;;;;;;5004635;28;20178;-88
2021/01/01 03:32:13;;;;;;;37.65;28.83;;;2.90;99.90;;;;;;5002262;28;20205;-88
2021/01/01 03:34:40;;;;;;;43.60;29.33;;;2.90;99.90;;;;;;5005014;28;20229;-89
2021/01/01 03:37:07;;;;;;;40.80;32.45;;;2.90;99.90;;;;;;5002075;28;20295;-88
2021/01/01 03:39:33;;;;;;;46.33;29.45;;;2.90;99.90;;;;;;5002344;28;20268;-88
2021/01/01 03:42:00;;;;;;;40.13;27.35;;;2.90;99.90;;;;;;5003701;28;20670;-89
2021/01/01 03:44:30;;;;;;;38.05;27.23;;;2.90;99.90;;;;;;5003735;28;20217;-88
2021/01/01 03:46:59;;;;;;;42.03;30.58;;;2.90;99.90;;;;;;5003072;28;20197;-89
2021/01/01 03:49:26;;;;;;;40.63;28.20;;;2.90;99.90;;;;;;5003391;28;20212;-88
2021/01/01 03:51:53;;;;;;;41.22;30.23;;;2.80;99.90;;;;;;5001931;28;20309;-89
2021/01/01 03:54:20;;;;;;;36.97;29.02;;;2.80;99.90;;;;;;5009850;28;20237;-89
2021/01/01 03:56:46;;;;;;;40.38;30.35;;;2.80;99.90;;;;;;5005416;28;20296;-88
2021/01/01 03:59:14;;;;;;;43.63;28.80;;;2.80;99.90;;;;;;4999043;28;20225;-89
2021/01/01 04:01:41;;;;;;;37.85;27.33;;;2.60;99.90;;;;;;5002925;28;20205;-88
2021/01/01 04:04:08;;;;;;;40.08;28.77;;;2.50;99.90;;;;;;4999489;28;20237;-88
2021/01/01 04:06:34;;;;;;;38.47;27.10;;;2.70;99.90;;;;;;4999674;28;20190;-88
2021/01/01 04:09:04;;;;;;;44.03;29.00;;;2.60;99.90;;;;;;5000309;28;20205;-88
2021/01/01 04:11:35;;;;;;;41.15;27.60;;;2.60;99.90;;;;;;4999649;28;20228;-89
2021/01/01 04:14:01;;;;;;;39.47;27.85;;;2.50;99.90;;;;;;4999921;28;20193;-88
2021/01/01 04:16:28;;;;;;;40.75;27.10;;;2.60;99.90;;;;;;5005602;28;20303;-87
2021/01/01 04:18:55;;;;;;;40.90;27.98;;;2.70;99.90;;;;;;5005435;28;20224;-88
2021/01/01 04:21:22;;;;;;;35.67;26.27;;;2.70;99.90;;;;;;5000301;28;20229;-89
2021/01/01 04:23:48;;;;;;;37.00;26.58;;;2.70;99.90;;;;;;4999892;28;20197;-89
2021/01/01 04:26:15;;;;;;;39.35;27.27;;;2.70;99.90;;;;;;5001355;28;20312;-89
2021/01/01 04:28:41;;;;;;;37.80;26.45;;;2.70;99.90;;;;;;5000845;28;20208;-88
2021/01/01 04:31:08;;;;;;;34.15;25.80;;;2.70;99.90;;;;;;5000281;28;20201;-88
2021/01/01 04:33:34;;;;;;;37.85;26.02;;;2.70;99.90;;;;;;4999801;28;20292;-88
2021/01/01 04:36:02;;;;;;;35.85;27.33;;;2.70;99.90;;;;;;5002013;28;20233;-88
2021/01/01 04:38:29;;;;;;;39.05;26.73;;;2.70;99.90;;;;;;5000255;28;20217;-88
2021/01/01 04:40:56;;;;;;;37.78;26.98;;;2.80;99.90;;;;;;5000441;28;20207;-88
2021/01/01 04:43:22;;;;;;;36.58;26.08;;;2.80;99.90;;;;;;5009743;28;20209;-89
2021/01/01 04:45:48;;;;;;;40.28;26.17;;;2.80;99.90;;;;;;5018965;28;20232;-88
2021/01/01 04:48:15;;;;;;;39.30;27.40;;;2.80;99.90;;;;;;5019112;28;20229;-88
2021/01/01 04:50:42;;;;;;;40.50;28.27;;;2.70;99.90;;;;;;5017681;28;20196;-87
2021/01/01 04:53:10;;;;;;;44.60;27.75;;;2.70;99.90;;;;;;5000963;28;20578;-87
2021/01/01 04:55:38;;;;;;;36.78;27.02;;;2.70;99.90;;;;;;4999639;28;20225;-87
2021/01/01 04:58:05;;;;;;;34.22;26.50;;;2.70;99.90;;;;;;5000549;28;20249;-87
2021/01/01 05:00:32;;;;;;;37.40;27.63;;;2.70;99.90;;;;;;5000081;28;20705;-87
2021/01/01 05:02:58;;;;;;;38.95;26.45;;;2.70;99.90;;;;;;5000820;28;20258;-87
2021/01/01 05:05:28;;;;;;;36.97;26.65;;;2.70;99.90;;;;;;4998672;28;20255;-87
2021/01/01 05:07:54;;;;;;;38.15;27.90;;;2.70;99.90;;;;;;5005975;28;20286;-87
2021/01/01 05:10:21;;;;;;;39.78;27.95;;;2.70;99.90;;;;;;5010411;28;20268;-87
2021/01/01 05:12:48;;;;;;;36.60;25.73;;;2.70;99.90;;;;;;5010577;28;20269;-87
2021/01/01 05:15:17;;;;;;;37.92;28.88;;;2.60;99.90;;;;;;5007515;28;20228;-88
2021/01/01 05:17:43;;;;;;;35.47;27.40;;;2.60;99.90;;;;;;4997273;28;20317;-88
2021/01/01 05:20:10;;;;;;;41.85;29.17;;;2.60;99.90;;;;;;4997220;28;20300;-88
2021/01/01 05:22:37;;;;;;;39.42;27.80;;;2.60;99.90;;;;;;4996824;28;20208;-87
2021/01/01 05:25:16;;;;;;;37.20;27.60;;;2.60;99.90;;;;;;4999979;28;20221;-87
2021/01/01 05:27:47;;;;;;;34.10;25.58;;;2.60;99.90;;;;;;5010347;28;20196;-87
2021/01/01 05:30:15;;;;;;;37.95;26.63;;;2.50;99.90;;;;;;5010661;28;20196;-87
2021/01/01 05:32:50;;;;;;;40.25;26.58;;;2.50;99.90;;;;;;4996785;28;20268;-87
2021/01/01 05:35:25;;;;;;;43.55;27.70;;;2.50;99.90;;;;;;5003365;28;20224;-87
2021/01/01 05:37:53;;;;;;;39.50;28.48;;;2.50;99.90;;;;;;5004714;28;20209;-87
2021/01/01 05:40:29;;;;;;;37.33;26.88;;;2.50;99.90;;;;;;5004862;28;20205;-88
2021/01/01 05:42:57;;;;;;;37.97;25.20;;;2.50;99.90;;;;;;5004256;28;20273;-88
2021/01/01 05:45:28;;;;;;;33.47;24.80;;;2.40;99.90;;;;;;5011220;28;20255;-87
2021/01/01 05:48:12;;;;;;;37.65;25.55;;;2.40;99.90;;;;;;5015467;28;20193;-88
2021/01/01 05:50:38;;;;;;;36.53;25.90;;;2.30;99.90;;;;;;5011672;28;20189;-87
2021/01/01 05:53:13;;;;;;;35.47;27.63;;;2.40;99.90;;;;;;4997555;28;20479;-88
2021/01/01 05:55:40;;;;;;;56.10;37.30;;;2.40;99.90;;;;;;4997128;28;20494;-88
2021/01/01 05:58:23;;;;;;;35.15;25.60;;;2.40;99.90;;;;;;4998178;28;20225;-88
2021/01/01 06:00:54;;;;;;;39.90;28.80;;;2.50;99.90;;;;;;4995931;28;20440;-88
2021/01/01 06:03:22;;;;;;;35.55;26.27;;;2.30;99.90;;;;;;4997204;28;20207;-88
2021/01/01 06:05:53;;;;;;;35.55;25.52;;;2.40;99.90;;;;;;4996553;28;20236;-87
2021/01/01 06:08:24;;;;;;;35.30;25.60;;;2.40;99.90;;;;;;4996765;28;20216;-87
2021/01/01 06:10:52;;;;;;;40.00;26.08;;;2.50;99.90;;;;;;4997369;28;20665;-87
2021/01/01 06:13:21;;;;;;;37.08;25.73;;;2.50;99.90;;;;;;4998426;28;20299;-87
2021/01/01 06:15:56;;;;;;;38.42;26.25;;;2.30;99.90;;;;;;4997089;28;20317;-87
2021/01/01 06:18:25;;;;;;;36.85;26.70;;;2.50;99.90;;;;;;4998374;28;20563;-87
2021/01/01 06:21:00;;;;;;;37.15;26.65;;;2.50;99.90;;;;;;4997708;28;20197;-87
2021/01/01 06:23:34;;;;;;;41.47;26.15;;;2.50;99.90;;;;;;4997077;28;20327;-88
2021/01/01 06:26:02;;;;;;;39.22;26.58;;;2.50;99.90;;;;;;4996729;28;20299;-88
2021/01/01 06:28:31;;;;;;;38.90;25.77;;;2.60;99.90;;;;;;4997250;28;20251;-87
2021/01/01 06:30:59;;;;;;;37.63;25.42;;;2.40;99.90;;;;;;4997280;28;20244;-87
2021/01/01 06:33:26;;;;;;;41.00;26.60;;;2.40;99.90;;;;;;4996869;28;20291;-87
2021/01/01 06:35:53;;;;;;;35.35;27.00;;;2.30;99.90;;;;;;4997171;28;20224;-87
2021/01/01 06:38:37;;;;;;;36.42;25.90;;;2.30;99.90;;;;;;4997834;28;20225;-87
2021/01/01 06:41:04;;;;;;;42.35;26.75;;;2.20;99.90;;;;;;4997145;28;20208;-87
2021/01/01 06:43:51;;;;;;;40.00;27.25;;;2.10;99.90;;;;;;4997208;28;20564;-88
2021/01/01 06:46:35;;;;;;;40.65;30.35;;;2.10;99.90;;;;;;4996735;28;20984;-87
2021/01/01 06:49:01;;;;;;;40.40;32.42;;;2.10;99.90;;;;;;4997018;28;20512;-88
2021/01/01 06:51:32;;;;;;;44.17;29.00;;;2.10;99.90;;;;;;4997407;28;20235;-87
2021/01/01 06:54:11;;;;;;;46.33;31.88;;;2.00;99.90;;;;;;4998171;28;20213;-87
2021/01/01 06:56:40;;;;;;;45.95;31.27;;;2.00;99.90;;;;;;4998568;28;20193;-87
2021/01/01 06:59:10;;;;;;;42.65;30.55;;;1.90;99.90;;;;;;4997949;28;20629;-87
2021/01/01 07:01:41;;;;;;;48.70;30.15;;;1.80;99.90;;;;;;4996742;28;20216;-87
2021/01/01 07:04:08;;;;;;;48.50;30.80;;;1.90;99.90;;;;;;4996889;28;20692;-88
2021/01/01 07:06:39;;;;;;;43.35;29.52;;;1.90;99.90;;;;;;4997145;28;20647;-88
2021/01/01 07:09:13;;;;;;;40.83;29.67;;;1.90;99.90;;;;;;5001716;28;20216;-87
2021/01/01 07:11:44;;;;;;;45.78;29.58;;;2.00;99.90;;;;;;4997936;28;20719;-88
2021/01/01 07:14:15;;;;;;;43.95;28.67;;;1.90;99.90;;;;;;4999943;28;20247;-88
2021/01/01 07:16:44;;;;;;;44.95;29.02;;;1.90;99.90;;;;;;4999766;28;20201;-87
2021/01/01 07:19:11;;;;;;;45.20;29.88;;;1.90;99.90;;;;;;4998998;28;20231;-88
2021/01/01 07:21:38;;;;;;;39.42;27.65;;;1.90;99.90;;;;;;5000971;28;20580;-88
2021/01/01 07:24:06;;;;;;;43.50;29.65;;;1.90;99.90;;;;;;4999478;28;20212;-88
2021/01/01 07:26:32;;;;;;;44.08;30.00;;;1.90;99.90;;;;;;4999402;28;20265;-88
2021/01/01 07:29:01;;;;;;;43.15;30.60;;;1.90;99.90;;;;;;4998990;28;20212;-88
2021/01/01 07:31:29;;;;;;;45.25;30.00;;;1.90;99.90;;;;;;4998568;28;20240;-88
2021/01/01 07:33:55;;;;;;;46.83;29.77;;;2.00;99.90;;;;;;4999740;28;20292;-88
2021/01/01 07:36:22;;;;;;;44.05;28.77;;;2.00;99.90;;;;;;5006745;28;20209;-88
2021/01/01 07:38:49;;;;;;;43.88;31.85;;;2.00;99.90;;;;;;5016656;28;20293;-87
2021/01/01 07:41:18;;;;;;;45.38;30.95;;;2.00;99.90;;;;;;5016062;28;20212;-88
2021/01/01 07:43:45;;;;;;;48.78;31.05;;;2.00;99.90;;;;;;5020738;28;20209;-88
2021/01/01 07:46:12;;;;;;;43.15;30.00;;;2.00;99.90;;;;;;5020969;28;20277;-88
2021/01/01 07:48:39;;;;;;;45.70;29.63;;;2.00;99.90;;;;;;5021395;28;20291;-88
2021/01/01 07:51:07;;;;;;;43.97;28.60;;;2.00;99.90;;;;;;5020539;28;20189;-88
2021/01/01 07:53:34;;;;;;;42.97;28.33;;;2.10;99.90;;;;;;5020309;28;20201;-88
2021/01/01 07:56:03;;;;;;;45.45;32.40;;;2.10;99.90;;;;;;5018916;28;20464;-87
2021/01/01 07:58:30;;;;;;;47.38;34.47;;;2.10;99.90;;;;;;5019628;28;20231;-88
2021/01/01 08:01:06;;;;;;;45.97;32.20;;;2.10;99.90;;;;;;5020103;28;21016;-87
2021/01/01 08:03:33;;;;;;;44.38;31.90;;;2.10;99.90;;;;;;5019491;28;20208;-88
2021/01/01 08:06:01;;;;;;;50.03;32.40;;;2.10;99.90;;;;;;5019439;28;20280;-88
2021/01/01 08:08:28;;;;;;;45.60;30.20;;;2.10;99.90;;;;;;5017910;28;20203;-88
2021/01/01 08:10:56;;;;;;;46.72;31.70;;;2.20;99.90;;;;;;5016040;28;20288;-88
2021/01/01 08:13:24;;;;;;;48.08;32.05;;;2.20;99.90;;;;;;5014697;28;20252;-87
2021/01/01 08:15:52;;;;;;;46.15;32.28;;;2.20;99.90;;;;;;5005108;28;20305;-88
2021/01/01 08:18:21;;;;;;;46.03;30.63;;;2.20;99.90;;;;;;5000867;28;20452;-88
2021/01/01 08:20:48;;;;;;;44.03;31.92;;;2.30;99.90;;;;;;4998577;28;20538;-88
2021/01/01 08:23:17;;;;;;;42.30;32.57;;;2.30;99.90;;;;;;4996263;28;20478;-88
2021/01/01 08:25:45;;;;;;;45.58;32.65;;;2.30;99.90;;;;;;4996606;28;20457;-87
2021/01/01 08:28:15;;;;;;;45.97;33.90;;;2.30;99.90;;;;;;4996260;28;20535;-88
2021/01/01 08:30:42;;;;;;;47.58;33.45;;;2.30;99.90;;;;;;4996531;28;20820;-88
2021/01/01 08:33:10;;;;;;;43.03;32.88;;;2.30;99.90;;;;;;4997280;28;20579;-88
2021/01/01 08:35:36;;;;;;;47.05;30.83;;;2.40;99.90;;;;;;4997579;28;20728;-89
2021/01/01 08:38:17;;;;;;;46.13;30.75;;;2.40;99.90;;;;;;4997797;28;20257;-88
2021/01/01 08:40:44;;;;;;;48.67;34.08;;;2.40;99.90;;;;;;5012057;28;20503;-89
2021/01/01 08:43:10;;;;;;;46.50;31.27;;;2.40;99.90;;;;;;4999880;28;20452;-89
2021/01/01 08:45:38;;;;;;;48.65;34.08;;;2.40;99.90;;;;;;4998019;28;20274;-88
2021/01/01 08:48:09;;;;;;;45.78;30.27;;;2.30;99.90;;;;;;4997550;28;20201;-87
2021/01/01 08:50:43;;;;;;;49.72;35.30;;;2.30;99.90;;;;;;4996243;28;20429;-87
2021/01/01 08:53:09;;;;;;;49.33;32.67;;;2.30;99.90;;;;;;5009946;28;20241;-88
2021/01/01 08:55:40;;;;;;;40.72;29.58;;;2.20;99.90;;;;;;5019472;28;20205;-88
2021/01/01 08:58:11;;;;;;;47.40;32.72;;;2.30;99.90;;;;;;5020001;28;20208;-89
2021/01/01 09:00:40;;;;;;;49.67;32.95;;;2.30;99.90;;;;;;5017962;28;20228;-88
2021/01/01 09:03:07;;;;;;;45.50;30.38;;;2.30;99.90;;;;;;5014739;28;20232;-86
2021/01/01 09:05:34;;;;;;;48.85;31.00;;;2.30;99.90;;;;;;4999183;28;20275;-87
2021/01/01 09:08:08;;;;;;;44.25;29.88;;;2.40;99.90;;;;;;4997413;28;20304;-87
2021/01/01 09:10:38;;;;;;;44.92;30.75;;;2.50;99.90;;;;;;4997402;28;20208;-87
2021/01/01 09:13:24;;;;;;;46.33;30.42;;;2.60;99.90;;;;;;4997216;28;20215;-87
2021/01/01 09:16:01;;;;;;;44.08;30.15;;;2.60;99.90;;;;;;4997090;28;20270;-87
2021/01/01 09:18:27;;;;;;;39.40;27.83;;;2.50;99.90;;;;;;4997630;28;20234;-87
2021/01/01 09:21:09;;;;;;;41.67;29.40;;;2.60;99.90;;;;;;5005934;28;20211;-86
2021/01/01 09:23:35;;;;;;;42.75;30.42;;;2.60;99.90;;;;;;5010816;28;20279;-87
2021/01/01 09:26:02;;;;;;;40.72;28.77;;;2.60;99.90;;;;;;5000056;28;20315;-87
2021/01/01 09:28:29;;;;;;;41.33;30.10;;;2.60;99.90;;;;;;4998368;28;20204;-87
2021/01/01 09:30:55;;;;;;;41.08;28.65;;;2.50;99.90;;;;;;4997337;28;20614;-87
2021/01/01 09:33:21;;;;;;;46.05;30.10;;;2.60;99.90;;;;;;4996394;28;20205;-87
2021/01/01 09:35:48;;;;;;;44.47;29.13;;;2.70;99.90;;;;;;4996013;28;20236;-87
2021/01/01 09:38:14;;;;;;;44.47;30.95;;;2.70;99.90;;;;;;5002828;28;20311;-87
2021/01/01 09:40:41;;;;;;;43.70;29.45;;;2.90;99.90;;;;;;5006018;28;20728;-87
2021/01/01 09:43:08;;;;;;;45.17;28.35;;;3.10;99.90;;;;;;4996807;28;20205;-88
2021/01/01 09:45:35;;;;;;;38.33;28.35;;;3.10;99.90;;;;;;4996094;28;20250;-88
2021/01/01 09:48:01;;;;;;;41.33;28.00;;;2.90;99.90;;;;;;4996095;28;20205;-88
2021/01/01 09:50:28;;;;;;;37.85;26.08;;;3.00;99.90;;;;;;5001584;28;20268;-88
2021/01/01 09:52:54;;;;;;;40.65;29.02;;;2.90;99.90;;;;;;5013665;28;20236;-88
2021/01/01 09:55:20;;;;;;;43.78;29.70;;;2.90;99.90;;;;;;4997480;28;20225;-88
2021/01/01 09:57:48;;;;;;;46.55;29.63;;;2.90;99.90;;;;;;4995835;28;20696;-88
2021/01/01 10:00:16;;;;;;;41.20;28.25;;;2.80;99.90;;;;;;4997160;28;20623;-88
2021/01/01 10:02:43;;;;;;;43.20;29.45;;;2.80;99.90;;;;;;4998381;28;20235;-88
2021/01/01 10:05:11;;;;;;;40.63;28.50;;;2.80;99.90;;;;;;5012487;22;20292;-86
2021/01/01 10:07:38;;;;;;;41.97;29.08;;;2.80;99.90;;;;;;5001366;28;20268;-86
2021/01/01 10:10:05;;;;;;;44.05;30.52;;;2.80;99.90;;;;;;5000567;28;20283;-87
2021/01/01 10:12:32;;;;;;;44.10;29.60;;;2.80;99.90;;;;;;5001529;28;20211;-86
2021/01/01 10:14:59;;;;;;;42.10;30.15;;;2.80;99.90;;;;;;5001246;28;20251;-86
2021/01/01 10:17:27;;;;;;;41.33;28.20;;;2.80;99.90;;;;;;5001536;28;20240;-89
2021/01/01 10:19:54;;;;;;;38.55;26.55;;;2.80;99.90;;;;;;5005929;28;20267;-86
2021/01/01 10:22:20;;;;;;;42.40;27.98;;;2.70;99.90;;;;;;5009714;28;20238;-86
2021/01/01 10:24:47;;;;;;;47.30;29.48;;;3.00;99.90;;;;;;5007833;28;20289;-88
2021/01/01 10:27:15;;;;;;;44.70;29.58;;;3.10;99.90;;;;;;5004641;28;20248;-85
2021/01/01 10:29:43;;;;;;;43.30;28.83;;;3.00;99.90;;;;;;5003191;28;20201;-87
2021/01/01 10:32:10;;;;;;;45.63;28.27;;;2.90;99.90;;;;;;5003773;28;20297;-85
2021/01/01 10:34:38;;;;;;;44.08;30.00;;;2.90;99.90;;;;;;5002068;28;20248;-85
2021/01/01 10:37:05;;;;;;;44.78;28.90;;;3.00;99.90;;;;;;5001134;28;20211;-86
2021/01/01 10:39:31;;;;;;;46.67;28.13;;;3.00;99.90;;;;;;5004677;28;20217;-87
2021/01/01 10:41:57;;;;;;;41.63;30.00;;;3.10;99.90;;;;;;5002913;28;20296;-86
2021/01/01 10:44:24;;;;;;;42.10;31.35;;;3.10;99.90;;;;;;5003818;28;20288;-87
2021/01/01 10:46:53;;;;;;;39.92;29.42;;;3.30;99.90;;;;;;5007841;28;20213;-86
2021/01/01 10:49:21;;;;;;;46.88;30.30;;;3.20;99.90;;;;;;5009154;28;20205;-87
2021/01/01 10:51:48;;;;;;;39.70;29.00;;;3.20;99.90;;;;;;5006572;28;20275;-86
2021/01/01 10:54:15;;;;;;;43.85;27.92;;;3.20;99.90;;;;;;5012535;28;20232;-87
2021/01/01 10:56:44;;;;;;;40.10;28.65;;;3.40;99.90;;;;;;5015394;28;20236;-86
2021/01/01 10:59:14;;;;;;;43.65;29.73;;;3.30;99.90;;;;;;5012904;28;20209;-85
2021/01/01 11:01:40;;;;;;;41.05;27.85;;;3.30;99.90;;;;;;5009585;28;20228;-86
2021/01/01 11:04:10;;;;;;;44.15;28.95;;;3.20;99.90;;;;;;5013714;28;20220;-86
2021/01/01 11:06:39;;;;;;;50.53;33.08;;;3.10;99.90;;;;;;5012136;28;20363;-87
2021/01/01 11:09:08;;;;;;;41.45;28.45;;;3.40;99.90;;;;;;5012970;28;20201;-88
2021/01/01 11:11:38;;;;;;;43.05;28.95;;;3.30;99.90;;;;;;5008609;28;20213;-88
2021/01/01 11:14:08;;;;;;;40.65;27.55;;;3.40;99.90;;;;;;5009311;28;20289;-86
2021/01/01 12:22:56;;;;;;;43.35;27.55;;;3.40;99.90;;;;;;5003797;28;20247;-86
2021/01/01 12:25:23;;;;;;;44.15;30.02;;;3.50;99.90;;;;;;5003369;28;20247;-86
2021/01/01 12:27:50;;;;;;;38.08;26.67;;;3.50;99.90;;;;;;5004523;28;20300;-86
2021/01/01 12:30:20;;;;;;;42.30;28.20;;;3.40;99.90;;;;;;5004137;28;20232;-87
2021/01/01 12:32:46;;;;;;;40.55;27.48;;;3.30;99.90;;;;;;5003983;28;20514;-86
2021/01/01 12:35:13;;;;;;;39.03;27.58;;;3.30;99.90;;;;;;5002805;28;20346;-85
2021/01/01 12:37:40;;;;;;;40.75;26.08;;;3.20;99.90;;;;;;5003021;28;20264;-85
2021/01/01 12:40:11;;;;;;;40.78;26.80;;;3.20;99.90;;;;;;5003370;28;20289;-85
2021/01/01 12:42:38;;;;;;;34.72;24.08;;;3.20;99.90;;;;;;5002984;28;20193;-86
2021/01/01 12:45:05;;;;;;;40.85;27.35;;;3.30;99.90;;;;;;5003985;28;20256;-86
2021/01/01 12:47:33;;;;;;;43.72;28.45;;;3.40;99.90;;;;;;5002519;28;20197;-85
2021/01/01 12:50:00;;;;;;;42.13;27.95;;;3.50;99.90;;;;;;5005006;28;20622;-85
2021/01/01 12:52:26;;;;;;;43.65;29.85;;;3.70;99.90;;;;;;5004196;28;20231;-86
2021/01/01 12:54:52;;;;;;;39.67;27.27;;;3.60;99.90;;;;;;5005224;28;20229;-85
2021/01/01 12:57:19;;;;;;;41.55;26.83;;;3.50;99.90;;;;;;5005703;28;20228;-85
2021/01/01 12:59:45;;;;;;;40.42;28.80;;;3.50;99.90;;;;;;5015142;28;20248;-85
2021/01/01 13:02:11;;;;;;;32.53;22.77;;;3.50;99.90;;;;;;5016272;28;20283;-86
2021/01/01 13:04:38;;;;;;;39.63;27.10;;;3.40;99.90;;;;;;5016503;28;20232;-86
2021/01/01 13:07:05;;;;;;;49.97;31.00;;;3.40;99.90;;;;;;5012122;28;20650;-85
2021/01/01 13:09:31;;;;;;;37.47;27.10;;;3.60;99.90;;;;;;5007534;28;20201;-87
2021/01/01 13:11:58;;;;;;;43.00;28.35;;;3.60;99.90;;;;;;5005057;28;20213;-85
2021/01/01 13:14:25;;;;;;;34.78;24.05;;;3.50;99.90;;;;;;5004046;28;20263;-84
2021/01/01 13:16:51;;;;;;;30.75;20.95;;;3.50;99.90;;;;;;5005054;28;20205;-85
2021/01/01 13:19:18;;;;;;;33.63;23.10;;;3.40;99.90;;;;;;5004599;28;20236;-84
2021/01/01 13:21:45;;;;;;;39.00;26.05;;;3.60;99.90;;;;;;5006850;28;20201;-85
2021/01/01 13:24:11;;;;;;;36.88;27.55;;;3.60;99.90;;;;;;5014312;28;20269;-85
2021/01/01 13:26:38;;;;;;;40.70;27.23;;;3.50;99.90;;;;;;5016523;28;20216;-86
2021/01/01 13:29:05;;;;;;;38.13;26.05;;;3.50;99.90;;;;;;5012390;28;20399;-86
2021/01/01 13:31:36;;;;;;;37.83;26.13;;;3.60;99.90;;;;;;5007727;28;20201;-86
2021/01/01 13:34:03;;;;;;;35.45;24.52;;;3.60;99.90;;;;;;5006368;28;20268;-86
2021/01/01 13:36:31;;;;;;;35.83;23.27;;;3.60;99.90;;;;;;5004145;28;20229;-86
2021/01/01 13:38:58;;;;;;;34.17;23.25;;;3.60;99.90;;;;;;5003694;28;20225;-86
2021/01/01 13:41:24;;;;;;;30.65;19.85;;;3.50;99.90;;;;;;5003803;28;20267;-85
2021/01/01 13:43:53;;;;;;;29.58;20.00;;;3.50;99.90;;;;;;5002754;28;20240;-85
2021/01/01 13:46:21;;;;;;;30.60;21.20;;;3.40;99.90;;;;;;5002810;28;20225;-86
2021/01/01 13:48:48;;;;;;;29.17;19.92;;;3.50;99.90;;;;;;5003203;28;20205;-86